KBEC/BEC METAR and TAF weather

Enter ICAO airport designator
Station Type Date Time Source
KBEC METAR 2019/06/26 16:15 UTC NOAA

KBEC 261615Z AUTO 17012KT 10SM CLR 28/22 A3007 RMK AO2 T02800219


Station Type Date Time Source
KBEC Decoded METAR 2019/06/26 16:15 UTC NOAA

Station name not available
Jun 26, 2019 - 12:15 PM EDT / 2019.06.26 1615 UTC
Wind: from the S (170 degrees) at 14 MPH (12 KT):0
Visibility: 10 mile(s):0
Sky conditions: clear
Temperature: 82.4 F (28.0 C)
Dew Point: 71.4 F (21.9 C)
Relative Humidity: 69%
Pressure (altimeter): 30.07 in. Hg (1018 hPa)
ob: KBEC 261615Z AUTO 17012KT 10SM CLR 28/22 A3007 RMK AO2 T02800219
cycle: 16

Station Type Date Time Source
KBEC TAF UTC NOAA

Error!

Example: see airport list